sensor_id;sensor_type;location;lat;lon;timestamp;pressure;altitude;pressure_sealevel;temperature;humidity
9474;BME280;8865;47.636;7.692;2022-11-11T00:00:25;99682.94;;;6.32;100.00
9474;BME280;8865;47.636;7.692;2022-11-11T00:02:54;99682.94;;;6.32;100.00
9474;BME280;8865;47.636;7.692;2022-11-11T00:05:20;99685.47;;;6.34;100.00
9474;BME280;8865;47.636;7.692;2022-11-11T00:07:46;99680.28;;;6.34;100.00
9474;BME280;8865;47.636;7.692;2022-11-11T00:10:13;99679.28;;;6.36;100.00
9474;BME280;8865;47.636;7.692;2022-11-11T00:12:39;99682.72;;;6.37;100.00
9474;BME280;8865;47.636;7.692;2022-11-11T00:15:06;99689.00;;;6.33;100.00
9474;BME280;8865;47.636;7.692;2022-11-11T00:17:32;99686.34;;;6.34;100.00
9474;BME280;8865;47.636;7.692;2022-11-11T00:20:18;99681.13;;;6.34;100.00
9474;BME280;8865;47.636;7.692;2022-11-11T00:23:03;99678.63;;;6.31;100.00
9474;BME280;8865;47.636;7.692;2022-11-11T00:25:51;99677.94;;;6.28;100.00
9474;BME280;8865;47.636;7.692;2022-11-11T00:28:18;99680.56;;;6.28;100.00
9474;BME280;8865;47.636;7.692;2022-11-11T00:30:43;99673.72;;;6.25;100.00
9474;BME280;8865;47.636;7.692;2022-11-11T00:33:09;99674.72;;;6.22;100.00
9474;BME280;8865;47.636;7.692;2022-11-11T00:35:35;99676.53;;;6.20;100.00
9474;BME280;8865;47.636;7.692;2022-11-11T00:38:20;99689.75;;;6.16;100.00
9474;BME280;8865;47.636;7.692;2022-11-11T00:41:04;99687.06;;;6.17;100.00
9474;BME280;8865;47.636;7.692;2022-11-11T00:43:30;99683.72;;;6.15;100.00
9474;BME280;8865;47.636;7.692;2022-11-11T00:45:56;99682.88;;;6.15;100.00
9474;BME280;8865;47.636;7.692;2022-11-11T00:48:43;99691.59;;;6.14;100.00
9474;BME280;8865;47.636;7.692;2022-11-11T00:51:28;99708.97;;;6.13;100.00
9474;BME280;8865;47.636;7.692;2022-11-11T00:53:54;99697.75;;;6.11;100.00
9474;BME280;8865;47.636;7.692;2022-11-11T00:56:21;99697.81;;;6.10;100.00
9474;BME280;8865;47.636;7.692;2022-11-11T00:58:47;99695.28;;;6.08;100.00
9474;BME280;8865;47.636;7.692;2022-11-11T01:01:14;99695.34;;;6.06;100.00
9474;BME280;8865;47.636;7.692;2022-11-11T01:03:39;99696.28;;;6.05;100.00
9474;BME280;8865;47.636;7.692;2022-11-11T01:06:06;99689.66;;;5.98;100.00
9474;BME280;8865;47.636;7.692;2022-11-11T01:08:32;99696.50;;;6.01;100.00
9474;BME280;8865;47.636;7.692;2022-11-11T01:10:58;99693.97;;;5.99;100.00
9474;BME280;8865;47.636;7.692;2022-11-11T01:13:26;99699.09;;;6.01;100.00
9474;BME280;8865;47.636;7.692;2022-11-11T01:15:57;99699.94;;;6.01;100.00
9474;BME280;8865;47.636;7.692;2022-11-11T01:18:24;99705.25;;;5.98;100.00
9474;BME280;8865;47.636;7.692;2022-11-11T01:21:01;99711.38;;;5.97;100.00
9474;BME280;8865;47.636;7.692;2022-11-11T01:23:29;99710.69;;;5.92;100.00
9474;BME280;8865;47.636;7.692;2022-11-11T01:26:04;99721.09;;;5.92;100.00
9474;BME280;8865;47.636;7.692;2022-11-11T01:28:31;99711.75;;;5.88;100.00
9474;BME280;8865;47.636;7.692;2022-11-11T01:31:09;99713.56;;;5.86;100.00
9474;BME280;8865;47.636;7.692;2022-11-11T01:33:36;99719.75;;;5.83;100.00
9474;BME280;8865;47.636;7.692;2022-11-11T01:36:16;99726.72;;;5.83;100.00
9474;BME280;8865;47.636;7.692;2022-11-11T01:38:42;99726.72;;;5.83;100.00
9474;BME280;8865;47.636;7.692;2022-11-11T01:41:13;99728.59;;;5.79;100.00
9474;BME280;8865;47.636;7.692;2022-11-11T01:49:21;99736.47;;;5.78;100.00
9474;BME280;8865;47.636;7.692;2022-11-11T01:52:13;99733.06;;;5.76;100.00
9474;BME280;8865;47.636;7.692;2022-11-11T01:54:47;99728.81;;;5.75;100.00
9474;BME280;8865;47.636;7.692;2022-11-11T01:57:19;99727.22;;;5.70;100.00
9474;BME280;8865;47.636;7.692;2022-11-11T01:59:49;99735.09;;;5.69;100.00
9474;BME280;8865;47.636;7.692;2022-11-11T02:02:21;99737.88;;;5.64;100.00
9474;BME280;8865;47.636;7.692;2022-11-11T02:04:50;99741.38;;;5.63;100.00
9474;BME280;8865;47.636;7.692;2022-11-11T02:07:36;99742.31;;;5.62;100.00
9474;BME280;8865;47.636;7.692;2022-11-11T02:10:05;99738.91;;;5.60;100.00
9474;BME280;8865;47.636;7.692;2022-11-11T02:12:33;99752.84;;;5.59;100.00
9474;BME280;8865;47.636;7.692;2022-11-11T02:15:18;99761.53;;;5.58;100.00
9474;BME280;8865;47.636;7.692;2022-11-11T02:17:46;99763.25;;;5.59;100.00
9474;BME280;8865;47.636;7.692;2022-11-11T02:20:14;99761.53;;;5.58;100.00
9474;BME280;8865;47.636;7.692;2022-11-11T02:22:50;99757.31;;;5.55;100.00
9474;BME280;8865;47.636;7.692;2022-11-11T02:25:21;99763.31;;;5.58;100.00
9474;BME280;8865;47.636;7.692;2022-11-11T02:27:50;99758.16;;;5.56;100.00
9474;BME280;8865;47.636;7.692;2022-11-11T02:30:19;99745.50;;;5.48;100.00
9474;BME280;8865;47.636;7.692;2022-11-11T02:32:50;99753.28;;;5.48;100.00
9474;BME280;8865;47.636;7.692;2022-11-11T02:35:25;99753.41;;;5.45;100.00
9474;BME280;8865;47.636;7.692;2022-11-11T02:37:54;99765.53;;;5.45;100.00
9474;BME280;8865;47.636;7.692;2022-11-11T02:40:45;99766.47;;;5.44;100.00
9474;BME280;8865;47.636;7.692;2022-11-11T02:43:30;99768.19;;;5.43;100.00
9474;BME280;8865;47.636;7.692;2022-11-11T02:45:57;99769.97;;;5.43;100.00
9474;BME280;8865;47.636;7.692;2022-11-11T02:48:24;99774.44;;;5.39;100.00
9474;BME280;8865;47.636;7.692;2022-11-11T02:50:50;99774.44;;;5.39;100.00
9474;BME280;8865;47.636;7.692;2022-11-11T02:53:16;99775.41;;;5.36;100.00
9474;BME280;8865;47.636;7.692;2022-11-11T02:55:42;99774.56;;;5.36;100.00
9474;BME280;8865;47.636;7.692;2022-11-11T02:58:09;99773.66;;;5.37;100.00
9474;BME280;8865;47.636;7.692;2022-11-11T03:00:35;99779.88;;;5.33;100.00
9474;BME280;8865;47.636;7.692;2022-11-11T03:03:01;99790.41;;;5.30;100.00
9474;BME280;8865;47.636;7.692;2022-11-11T03:05:27;99793.91;;;5.29;100.00
9474;BME280;8865;47.636;7.692;2022-11-11T03:07:53;99795.66;;;5.28;100.00
9474;BME280;8865;47.636;7.692;2022-11-11T03:10:19;99799.28;;;5.24;100.00
9474;BME280;8865;47.636;7.692;2022-11-11T03:12:45;99811.31;;;5.27;100.00
9474;BME280;8865;47.636;7.692;2022-11-11T03:15:10;99804.28;;;5.29;100.00
9474;BME280;8865;47.636;7.692;2022-11-11T03:17:36;99805.19;;;5.28;100.00
9474;BME280;8865;47.636;7.692;2022-11-11T03:20:14;99807.91;;;5.25;100.00
9474;BME280;8865;47.636;7.692;2022-11-11T03:25:25;99794.72;;;5.29;100.00
9474;BME280;8865;47.636;7.692;2022-11-11T03:28:07;99794.78;;;5.28;100.00
9474;BME280;8865;47.636;7.692;2022-11-11T03:30:33;99798.53;;;5.21;100.00
9474;BME280;8865;47.636;7.692;2022-11-11T03:33:00;99800.47;;;5.15;100.00
9474;BME280;8865;47.636;7.692;2022-11-11T03:35:26;99804.91;;;5.13;100.00
9474;BME280;8865;47.636;7.692;2022-11-11T03:37:52;99809.34;;;5.10;100.00
9474;BME280;8865;47.636;7.692;2022-11-11T03:40:37;99805.84;;;5.11;100.00
9474;BME280;8865;47.636;7.692;2022-11-11T03:43:03;99815.41;;;5.10;100.00
9474;BME280;8865;47.636;7.692;2022-11-11T03:45:29;99815.28;;;5.13;100.00
9474;BME280;8865;47.636;7.692;2022-11-11T03:47:55;99811.81;;;5.13;100.00
9474;BME280;8865;47.636;7.692;2022-11-11T03:50:21;99812.63;;;5.15;100.00
9474;BME280;8865;47.636;7.692;2022-11-11T03:52:47;99813.75;;;5.08;100.00
9474;BME280;8865;47.636;7.692;2022-11-11T03:55:14;99808.44;;;5.11;100.00
9474;BME280;8865;47.636;7.692;2022-11-11T03:57:45;99805.91;;;5.09;100.00
9474;BME280;8865;47.636;7.692;2022-11-11T04:00:16;99806.75;;;5.10;100.00
9474;BME280;8865;47.636;7.692;2022-11-11T04:02:43;99811.03;;;5.11;100.00
9474;BME280;8865;47.636;7.692;2022-11-11T04:05:27;99811.94;;;5.10;100.00
9474;BME280;8865;47.636;7.692;2022-11-11T04:08:14;99817.13;;;5.10;100.00
9474;BME280;8865;47.636;7.692;2022-11-11T04:11:00;99821.56;;;5.08;100.00
9474;BME280;8865;47.636;7.692;2022-11-11T04:13:29;99813.09;;;5.03;100.00
9474;BME280;8865;47.636;7.692;2022-11-11T04:16:13;99807.03;;;5.02;100.00
9474;BME280;8865;47.636;7.692;2022-11-11T04:18:39;99809.69;;;5.00;100.00
9474;BME280;8865;47.636;7.692;2022-11-11T04:21:24;99804.56;;;4.99;100.00
9474;BME280;8865;47.636;7.692;2022-11-11T04:24:19;99797.75;;;4.96;100.00
9474;BME280;8865;47.636;7.692;2022-11-11T04:27:05;99796.06;;;4.95;100.00
9474;BME280;8865;47.636;7.692;2022-11-11T04:29:32;99794.22;;;4.97;100.00
9474;BME280;8865;47.636;7.692;2022-11-11T04:32:08;99802.09;;;4.96;100.00
9474;BME280;8865;47.636;7.692;2022-11-11T04:34:58;99798.41;;;5.01;100.00
9474;BME280;8865;47.636;7.692;2022-11-11T04:37:26;99798.47;;;5.00;100.00
9474;BME280;8865;47.636;7.692;2022-11-11T04:39:52;99795.88;;;5.00;100.00
9474;BME280;8865;47.636;7.692;2022-11-11T04:42:37;99796.53;;;5.05;100.00
9474;BME280;8865;47.636;7.692;2022-11-11T04:45:08;99799.94;;;5.07;100.00
9474;BME280;8865;47.636;7.692;2022-11-11T04:47:59;99795.63;;;5.06;100.00
9474;BME280;8865;47.636;7.692;2022-11-11T04:50:29;99791.34;;;5.05;100.00
9474;BME280;8865;47.636;7.692;2022-11-11T04:52:56;99790.44;;;5.06;100.00
9474;BME280;8865;47.636;7.692;2022-11-11T04:55:22;99779.28;;;5.04;100.00
9474;BME280;8865;47.636;7.692;2022-11-11T04:58:08;99780.19;;;5.03;100.00
9474;BME280;8865;47.636;7.692;2022-11-11T05:00:34;99781.38;;;4.94;100.00
9474;BME280;8865;47.636;7.692;2022-11-11T05:03:01;99780.53;;;4.94;100.00
9474;BME280;8865;47.636;7.692;2022-11-11T05:05:57;99777.09;;;4.93;100.00
9474;BME280;8865;47.636;7.692;2022-11-11T05:08:55;99782.13;;;4.98;100.00
9474;BME280;8865;47.636;7.692;2022-11-11T05:11:35;99783.06;;;4.95;100.00
9474;BME280;8865;47.636;7.692;2022-11-11T05:14:03;99785.53;;;4.98;100.00
9474;BME280;8865;47.636;7.692;2022-11-11T05:16:56;99772.63;;;4.97;100.00
9474;BME280;8865;47.636;7.692;2022-11-11T05:19:41;99774.44;;;4.95;100.00
9474;BME280;8865;47.636;7.692;2022-11-11T05:22:46;99777.81;;;4.97;100.00
9474;BME280;8865;47.636;7.692;2022-11-11T05:25:12;99778.66;;;4.97;100.00
9474;BME280;8865;47.636;7.692;2022-11-11T05:27:53;99779.47;;;4.99;100.00
9474;BME280;8865;47.636;7.692;2022-11-11T05:30:20;99782.94;;;4.98;100.00
9474;BME280;8865;47.636;7.692;2022-11-11T05:32:47;99789.03;;;4.97;100.00
9474;BME280;8865;47.636;7.692;2022-11-11T05:35:14;99779.53;;;4.98;100.00
9474;BME280;8865;47.636;7.692;2022-11-11T05:37:41;99782.06;;;4.99;100.00
9474;BME280;8865;47.636;7.692;2022-11-11T05:40:08;99784.53;;;5.03;100.00
9474;BME280;8865;47.636;7.692;2022-11-11T05:42:34;99782.13;;;4.98;100.00
9474;BME280;8865;47.636;7.692;2022-11-11T05:45:00;99782.00;;;5.01;100.00
9474;BME280;8865;47.636;7.692;2022-11-11T05:47:26;99786.31;;;5.00;100.00
9474;BME280;8865;47.636;7.692;2022-11-11T05:49:52;99788.03;;;5.01;100.00
9474;BME280;8865;47.636;7.692;2022-11-11T05:52:18;99790.50;;;5.05;100.00
9474;BME280;8865;47.636;7.692;2022-11-11T05:54:44;99794.97;;;5.01;100.00
9474;BME280;8865;47.636;7.692;2022-11-11T05:57:11;99794.97;;;5.01;100.00
9474;BME280;8865;47.636;7.692;2022-11-11T05:59:37;99800.88;;;5.05;100.00
9474;BME280;8865;47.636;7.692;2022-11-11T06:02:03;99809.69;;;5.00;100.00
9474;BME280;8865;47.636;7.692;2022-11-11T06:04:29;99817.53;;;4.99;100.00
9474;BME280;8865;47.636;7.692;2022-11-11T06:06:55;99821.91;;;4.98;100.00
9474;BME280;8865;47.636;7.692;2022-11-11T06:09:21;99823.38;;;5.06;100.00
9474;BME280;8865;47.636;7.692;2022-11-11T06:11:47;99832.13;;;5.03;100.00
9474;BME280;8865;47.636;7.692;2022-11-11T06:14:12;99835.50;;;5.05;100.00
9474;BME280;8865;47.636;7.692;2022-11-11T06:16:38;99839.84;;;5.05;100.00
9474;BME280;8865;47.636;7.692;2022-11-11T06:19:04;99842.78;;;4.95;100.00
9474;BME280;8865;47.636;7.692;2022-11-11T06:21:31;99847.88;;;4.98;100.00
9474;BME280;8865;47.636;7.692;2022-11-11T06:24:17;99855.59;;;5.00;100.00
9474;BME280;8865;47.636;7.692;2022-11-11T06:26:43;99861.47;;;5.05;100.00
9474;BME280;8865;47.636;7.692;2022-11-11T06:29:08;99859.63;;;5.09;100.00
9474;BME280;8865;47.636;7.692;2022-11-11T06:31:34;99870.00;;;5.09;100.00
9474;BME280;8865;47.636;7.692;2022-11-11T06:34:00;99868.19;;;5.11;100.00
9474;BME280;8865;47.636;7.692;2022-11-11T06:36:26;99873.03;;;5.20;100.00
9474;BME280;8865;47.636;7.692;2022-11-11T06:38:52;99868.00;;;5.15;100.00
9474;BME280;8865;47.636;7.692;2022-11-11T06:41:18;99877.28;;;5.23;100.00
9474;BME280;8865;47.636;7.692;2022-11-11T06:43:44;99880.72;;;5.23;100.00
9474;BME280;8865;47.636;7.692;2022-11-11T06:46:21;99869.53;;;5.21;100.00
9474;BME280;8865;47.636;7.692;2022-11-11T06:48:48;99877.03;;;5.29;100.00
9474;BME280;8865;47.636;7.692;2022-11-11T06:51:14;99882.13;;;5.32;100.00
9474;BME280;8865;47.636;7.692;2022-11-11T06:53:41;99880.00;;;5.42;100.00
9474;BME280;8865;47.636;7.692;2022-11-11T06:56:08;99888.19;;;5.54;100.00
9474;BME280;8865;47.636;7.692;2022-11-11T06:58:34;99897.47;;;5.60;100.00
9474;BME280;8865;47.636;7.692;2022-11-11T07:01:04;99894.44;;;5.71;100.00
9474;BME280;8865;47.636;7.692;2022-11-11T07:03:31;99896.88;;;5.76;100.00
9474;BME280;8865;47.636;7.692;2022-11-11T07:05:59;99891.47;;;5.80;100.00
9474;BME280;8865;47.636;7.692;2022-11-11T07:08:26;99891.16;;;5.88;100.00
9474;BME280;8865;47.636;7.692;2022-11-11T07:10:52;99901.22;;;5.97;100.00
9474;BME280;8865;47.636;7.692;2022-11-11T07:13:17;99903.47;;;6.06;100.00
9474;BME280;8865;47.636;7.692;2022-11-11T07:15:44;99903.25;;;6.11;100.00
9474;BME280;8865;47.636;7.692;2022-11-11T07:18:10;99896.84;;;6.20;100.00
9474;BME280;8865;47.636;7.692;2022-11-11T07:20:37;99888.00;;;6.24;100.00
9474;BME280;8865;47.636;7.692;2022-11-11T07:23:04;99896.34;;;6.32;100.00
9474;BME280;8865;47.636;7.692;2022-11-11T07:25:30;99893.41;;;6.40;100.00
9474;BME280;8865;47.636;7.692;2022-11-11T07:27:56;99905.88;;;6.52;100.00
9474;BME280;8865;47.636;7.692;2022-11-11T07:30:22;99899.19;;;6.67;100.00
9474;BME280;8865;47.636;7.692;2022-11-11T07:32:50;99908.09;;;6.82;100.00
9474;BME280;8865;47.636;7.692;2022-11-11T07:35:17;99914.38;;;6.97;100.00
9474;BME280;8865;47.636;7.692;2022-11-11T07:37:44;99907.34;;;7.18;100.00
9474;BME280;8865;47.636;7.692;2022-11-11T07:40:13;99898.31;;;7.44;100.00
9474;BME280;8865;47.636;7.692;2022-11-11T07:42:40;99903.38;;;7.66;100.00
9474;BME280;8865;47.636;7.692;2022-11-11T07:45:07;99907.94;;;7.80;100.00
9474;BME280;8865;47.636;7.692;2022-11-11T07:47:34;99900.28;;;7.95;100.00
9474;BME280;8865;47.636;7.692;2022-11-11T07:50:02;99902.38;;;8.05;100.00
9474;BME280;8865;47.636;7.692;2022-11-11T07:52:28;99899.22;;;8.16;100.00
9474;BME280;8865;47.636;7.692;2022-11-11T07:54:55;99902.13;;;8.28;100.00
9474;BME280;8865;47.636;7.692;2022-11-11T07:57:21;99892.16;;;8.36;100.00
9474;BME280;8865;47.636;7.692;2022-11-11T07:59:47;99900.16;;;8.50;100.00
9474;BME280;8865;47.636;7.692;2022-11-11T08:02:14;99899.22;;;8.69;100.00
9474;BME280;8865;47.636;7.692;2022-11-11T08:04:40;99886.78;;;8.90;100.00
9474;BME280;8865;47.636;7.692;2022-11-11T08:07:06;99890.13;;;9.09;100.00
9474;BME280;8865;47.636;7.692;2022-11-11T08:09:32;99883.38;;;9.21;100.00
9474;BME280;8865;47.636;7.692;2022-11-11T08:11:58;99883.88;;;9.12;100.00
9474;BME280;8865;47.636;7.692;2022-11-11T08:14:42;99882.28;;;9.25;100.00
9474;BME280;8865;47.636;7.692;2022-11-11T08:17:08;99884.22;;;9.38;100.00
9474;BME280;8865;47.636;7.692;2022-11-11T08:19:34;99890.22;;;9.56;100.00
9474;BME280;8865;47.636;7.692;2022-11-11T08:22:00;99886.31;;;9.79;100.00
9474;BME280;8865;47.636;7.692;2022-11-11T08:24:26;99886.59;;;10.05;100.00
9474;BME280;8865;47.636;7.692;2022-11-11T08:26:52;99885.13;;;10.45;100.00
9474;BME280;8865;47.636;7.692;2022-11-11T08:29:19;99887.78;;;10.74;100.00
9474;BME280;8865;47.636;7.692;2022-11-11T08:31:45;99879.16;;;11.01;100.00
9474;BME280;8865;47.636;7.692;2022-11-11T08:34:11;99889.16;;;11.23;100.00
9474;BME280;8865;47.636;7.692;2022-11-11T08:36:38;99880.66;;;11.61;100.00
9474;BME280;8865;47.636;7.692;2022-11-11T08:39:05;99880.25;;;11.94;100.00
9474;BME280;8865;47.636;7.692;2022-11-11T08:41:31;99879.06;;;12.51;100.00
9474;BME280;8865;47.636;7.692;2022-11-11T08:43:57;99870.13;;;13.30;100.00
9474;BME280;8865;47.636;7.692;2022-11-11T08:46:25;99869.75;;;13.84;100.00
9474;BME280;8865;47.636;7.692;2022-11-11T08:48:52;99864.88;;;14.38;100.00
9474;BME280;8865;47.636;7.692;2022-11-11T08:51:18;99861.97;;;14.29;100.00
9474;BME280;8865;47.636;7.692;2022-11-11T08:53:44;99863.88;;;14.63;100.00
9474;BME280;8865;47.636;7.692;2022-11-11T08:56:10;99861.84;;;15.00;100.00
9474;BME280;8865;47.636;7.692;2022-11-11T08:58:37;99870.22;;;15.28;100.00
9474;BME280;8865;47.636;7.692;2022-11-11T09:01:03;99863.78;;;15.97;100.00
9474;BME280;8865;47.636;7.692;2022-11-11T09:03:30;99863.16;;;16.57;100.00
9474;BME280;8865;47.636;7.692;2022-11-11T09:05:56;99860.00;;;17.44;96.52
9474;BME280;8865;47.636;7.692;2022-11-11T09:08:22;99856.28;;;17.57;93.75
9474;BME280;8865;47.636;7.692;2022-11-11T09:10:48;99863.84;;;17.91;94.20
9474;BME280;8865;47.636;7.692;2022-11-11T09:13:14;99860.75;;;18.25;89.39
9474;BME280;8865;47.636;7.692;2022-11-11T09:15:40;99867.22;;;18.12;88.43
9474;BME280;8865;47.636;7.692;2022-11-11T09:18:06;99858.25;;;18.23;86.90
9474;BME280;8865;47.636;7.692;2022-11-11T09:20:33;99862.28;;;17.68;90.49
9474;BME280;8865;47.636;7.692;2022-11-11T09:22:59;99864.63;;;17.52;91.41
9474;BME280;8865;47.636;7.692;2022-11-11T09:25:25;99865.53;;;17.92;93.73
9474;BME280;8865;47.636;7.692;2022-11-11T09:27:56;99870.25;;;18.27;93.01
9474;BME280;8865;47.636;7.692;2022-11-11T09:30:23;99864.69;;;19.33;81.25
9474;BME280;8865;47.636;7.692;2022-11-11T09:32:50;99865.13;;;19.74;77.30
9474;BME280;8865;47.636;7.692;2022-11-11T09:35:16;99864.88;;;20.48;73.29
9474;BME280;8865;47.636;7.692;2022-11-11T09:37:52;99855.06;;;21.60;67.04
9474;BME280;8865;47.636;7.692;2022-11-11T09:40:20;99856.75;;;22.43;63.13
9474;BME280;8865;47.636;7.692;2022-11-11T09:48:25;99866.66;;;24.61;52.38
9474;BME280;8865;47.636;7.692;2022-11-11T09:51:00;99868.22;;;25.00;50.79
9474;BME280;8865;47.636;7.692;2022-11-11T09:53:32;99866.00;;;25.04;49.05
9474;BME280;8865;47.636;7.692;2022-11-11T09:56:17;99867.06;;;25.39;48.38
9474;BME280;8865;47.636;7.692;2022-11-11T09:58:49;99859.75;;;26.13;46.99
9474;BME280;8865;47.636;7.692;2022-11-11T10:01:22;99857.97;;;25.98;45.29
9474;BME280;8865;47.636;7.692;2022-11-11T10:06:27;99855.38;;;24.13;48.08
9474;BME280;8865;47.636;7.692;2022-11-11T10:09:00;99854.28;;;24.07;48.91
9474;BME280;8865;47.636;7.692;2022-11-11T10:14:18;99864.69;;;23.16;52.94
9474;BME280;8865;47.636;7.692;2022-11-11T10:22:33;99845.13;;;24.69;48.32
9474;BME280;8865;47.636;7.692;2022-11-11T10:27:42;99843.91;;;25.02;48.25
9474;BME280;8865;47.636;7.692;2022-11-11T10:32:45;99841.38;;;25.15;47.56
9474;BME280;8865;47.636;7.692;2022-11-11T10:35:19;99843.91;;;25.02;47.33
9474;BME280;8865;47.636;7.692;2022-11-11T10:37:45;99839.19;;;25.04;47.36
9474;BME280;8865;47.636;7.692;2022-11-11T10:40:25;99840.13;;;25.47;46.26
9474;BME280;8865;47.636;7.692;2022-11-11T10:42:53;99834.91;;;24.73;47.83
9474;BME280;8865;47.636;7.692;2022-11-11T10:55:45;99807.69;;;25.92;45.58
9474;BME280;8865;47.636;7.692;2022-11-11T10:58:29;99798.63;;;25.93;44.06
9474;BME280;8865;47.636;7.692;2022-11-11T11:00:59;99799.09;;;25.75;44.62
9474;BME280;8865;47.636;7.692;2022-11-11T11:03:35;99794.97;;;25.14;45.08
9474;BME280;8865;47.636;7.692;2022-11-11T11:08:46;99783.50;;;24.54;44.87
9474;BME280;8865;47.636;7.692;2022-11-11T11:11:20;99772.75;;;25.57;44.81
9474;BME280;8865;47.636;7.692;2022-11-11T11:13:51;99775.72;;;26.19;42.96
9474;BME280;8865;47.636;7.692;2022-11-11T11:16:23;99772.81;;;25.27;45.57
9474;BME280;8865;47.636;7.692;2022-11-11T11:19:19;99770.66;;;24.65;47.14
9474;BME280;8865;47.636;7.692;2022-11-11T11:21:56;99765.91;;;25.83;44.47
9474;BME280;8865;47.636;7.692;2022-11-11T11:24:28;99770.09;;;26.14;42.61
9474;BME280;8865;47.636;7.692;2022-11-11T11:26:56;99768.25;;;27.04;41.34
9474;BME280;8865;47.636;7.692;2022-11-11T11:29:37;99767.53;;;27.37;40.75
9474;BME280;8865;47.636;7.692;2022-11-11T11:32:20;99767.88;;;27.14;42.57
9474;BME280;8865;47.636;7.692;2022-11-11T11:34:51;99760.09;;;27.33;41.07
9474;BME280;8865;47.636;7.692;2022-11-11T11:37:19;99752.81;;;27.26;42.53
9474;BME280;8865;47.636;7.692;2022-11-11T11:39:46;99755.41;;;26.93;41.00
9474;BME280;8865;47.636;7.692;2022-11-11T11:42:27;99750.47;;;26.55;41.42
9474;BME280;8865;47.636;7.692;2022-11-11T11:44:54;99744.91;;;26.22;42.89
9474;BME280;8865;47.636;7.692;2022-11-11T11:50:41;99736.22;;;26.13;43.26
9474;BME280;8865;47.636;7.692;2022-11-11T11:55:59;99737.72;;;26.22;43.46
9474;BME280;8865;47.636;7.692;2022-11-11T12:01:16;99736.28;;;27.96;40.19
9474;BME280;8865;47.636;7.692;2022-11-11T12:03:57;99737.31;;;27.42;38.22
9474;BME280;8865;47.636;7.692;2022-11-11T12:12:19;99732.34;;;27.39;40.19
9474;BME280;8865;47.636;7.692;2022-11-11T12:15:05;99730.97;;;26.81;39.68
9474;BME280;8865;47.636;7.692;2022-11-11T12:20:27;99734.53;;;26.47;41.27
9474;BME280;8865;47.636;7.692;2022-11-11T12:29:11;99722.81;;;25.20;42.94
9474;BME280;8865;47.636;7.692;2022-11-11T12:31:47;99723.19;;;25.31;43.97
9474;BME280;8865;47.636;7.692;2022-11-11T12:40:12;99728.03;;;23.42;47.69
9474;BME280;8865;47.636;7.692;2022-11-11T12:43:00;99727.16;;;22.95;50.22
9474;BME280;8865;47.636;7.692;2022-11-11T12:45:39;99722.44;;;22.26;51.66
9474;BME280;8865;47.636;7.692;2022-11-11T12:51:16;99717.03;;;21.37;55.75
9474;BME280;8865;47.636;7.692;2022-11-11T12:53:53;99708.38;;;21.11;58.75
9474;BME280;8865;47.636;7.692;2022-11-11T12:59:10;99713.00;;;21.00;67.05
9474;BME280;8865;47.636;7.692;2022-11-11T13:01:48;99714.47;;;20.95;66.94
9474;BME280;8865;47.636;7.692;2022-11-11T13:04:41;99700.53;;;20.50;67.31
9474;BME280;8865;47.636;7.692;2022-11-11T13:15:25;99719.53;;;20.21;75.18
9474;BME280;8865;47.636;7.692;2022-11-11T13:17:52;99708.84;;;20.12;75.55
9474;BME280;8865;47.636;7.692;2022-11-11T13:23:23;99705.22;;;21.15;70.27
9474;BME280;8865;47.636;7.692;2022-11-11T13:25:55;99701.72;;;21.15;67.30
9474;BME280;8865;47.636;7.692;2022-11-11T13:28:29;99696.28;;;20.23;69.92
9474;BME280;8865;47.636;7.692;2022-11-11T13:31:14;99698.44;;;20.70;71.24
9474;BME280;8865;47.636;7.692;2022-11-11T13:33:46;99701.81;;;20.88;68.42
9474;BME280;8865;47.636;7.692;2022-11-11T13:36:16;99705.63;;;20.78;68.98
9474;BME280;8865;47.636;7.692;2022-11-11T13:38:50;99710.00;;;20.44;68.67
9474;BME280;8865;47.636;7.692;2022-11-11T13:41:30;99712.69;;;21.03;69.01
9474;BME280;8865;47.636;7.692;2022-11-11T13:43:59;99710.66;;;20.89;68.58
9474;BME280;8865;47.636;7.692;2022-11-11T13:48:53;99709.16;;;20.78;66.86
9474;BME280;8865;47.636;7.692;2022-11-11T13:54:00;99723.69;;;21.09;71.03
9474;BME280;8865;47.636;7.692;2022-11-11T13:56:37;99713.53;;;21.12;66.47
9474;BME280;8865;47.636;7.692;2022-11-11T13:59:04;99721.44;;;20.71;67.23
9474;BME280;8865;47.636;7.692;2022-11-11T14:01:36;99711.75;;;20.27;71.65
9474;BME280;8865;47.636;7.692;2022-11-11T14:04:05;99716.97;;;20.45;75.52
9474;BME280;8865;47.636;7.692;2022-11-11T14:06:35;99717.97;;;20.87;71.15
9474;BME280;8865;47.636;7.692;2022-11-11T14:09:02;99720.78;;;20.85;71.67
9474;BME280;8865;47.636;7.692;2022-11-11T14:11:34;99719.22;;;20.58;71.01
9474;BME280;8865;47.636;7.692;2022-11-11T14:17:03;99735.72;;;19.03;84.52
9474;BME280;8865;47.636;7.692;2022-11-11T14:19:30;99741.19;;;18.08;94.46
9474;BME280;8865;47.636;7.692;2022-11-11T14:24:51;99739.06;;;16.85;100.00
9474;BME280;8865;47.636;7.692;2022-11-11T14:27:26;99738.69;;;16.49;100.00
9474;BME280;8865;47.636;7.692;2022-11-11T14:29:54;99752.06;;;16.26;100.00
9474;BME280;8865;47.636;7.692;2022-11-11T14:40:10;99760.09;;;15.08;100.00
9474;BME280;8865;47.636;7.692;2022-11-11T14:45:49;99760.53;;;14.69;100.00
9474;BME280;8865;47.636;7.692;2022-11-11T14:47:51;99752.00;;;14.54;100.00
9474;BME280;8865;47.636;7.692;2022-11-11T14:52:59;99757.41;;;14.30;100.00
9474;BME280;8865;47.636;7.692;2022-11-11T14:55:34;99758.72;;;14.24;100.00
9474;BME280;8865;47.636;7.692;2022-11-11T14:58:11;99764.81;;;14.14;100.00
9474;BME280;8865;47.636;7.692;2022-11-11T15:00:57;99763.72;;;14.05;100.00
9474;BME280;8865;47.636;7.692;2022-11-11T15:06:04;99761.66;;;13.97;100.00
9474;BME280;8865;47.636;7.692;2022-11-11T15:16:13;99773.50;;;13.56;100.00
9474;BME280;8865;47.636;7.692;2022-11-11T15:18:56;99774.81;;;13.50;100.00
9474;BME280;8865;47.636;7.692;2022-11-11T15:22:16;99773.69;;;13.42;100.00
9474;BME280;8865;47.636;7.692;2022-11-11T15:24:28;99770.88;;;13.32;100.00
9474;BME280;8865;47.636;7.692;2022-11-11T15:30:11;99768.84;;;13.11;100.00
9474;BME280;8865;47.636;7.692;2022-11-11T15:32:51;99763.75;;;12.97;100.00
9474;BME280;8865;47.636;7.692;2022-11-11T15:38:04;99769.16;;;12.82;100.00
9474;BME280;8865;47.636;7.692;2022-11-11T15:40:49;99765.41;;;12.74;100.00
9474;BME280;8865;47.636;7.692;2022-11-11T15:43:24;99767.09;;;12.62;100.00
9474;BME280;8865;47.636;7.692;2022-11-11T15:45:53;99762.38;;;12.54;100.00
9474;BME280;8865;47.636;7.692;2022-11-11T15:48:27;99759.56;;;12.44;100.00
9474;BME280;8865;47.636;7.692;2022-11-11T15:50:54;99763.97;;;12.31;100.00